Time;durP1;ratioP1;P1;durP2;ratioP2;P2;SDS_P1;SDS_P2;PMS_P1;PMS_P2;Temp;Humidity;BMP_temperature;BMP_pressure;BME280_temperature;BME280_humidity;BME280_pressure;Samples;Min_cycle;Max_cycle;Signal;HPM_P1;HPM_P2
2022/05/19 00:01:47;;;;;;;5.60;5.20;;;;;;;13.59;100.00;97085.69;5072265;28;20462;-76
2022/05/19 00:04:14;;;;;;;6.77;5.53;;;;;;;13.47;100.00;97080.31;5089483;28;20508;-76
2022/05/19 00:06:41;;;;;;;5.30;4.80;;;;;;;13.66;100.00;97109.88;5078444;28;20435;-76
2022/05/19 00:09:08;;;;;;;5.90;4.73;;;;;;;13.39;100.00;97062.59;5077050;28;20527;-76
2022/05/19 00:11:35;;;;;;;6.13;5.40;;;;;;;13.37;100.00;97070.88;5082069;28;20833;-76
2022/05/19 00:14:01;;;;;;;6.20;5.70;;;;;;;13.30;100.00;97074.06;5070292;28;20554;-75
2022/05/19 00:16:29;;;;;;;5.83;5.33;;;;;;;13.30;100.00;97066.09;5070391;28;20547;-76
2022/05/19 00:18:56;;;;;;;5.50;5.00;;;;;;;13.55;100.00;97074.94;5085606;28;20427;-75
2022/05/19 00:21:23;;;;;;;6.63;6.13;;;;;;;13.67;100.00;97090.16;5078588;28;20499;-75
2022/05/19 00:23:50;;;;;;;5.37;4.87;;;;;;;13.47;100.00;97082.97;5074813;28;20877;-75
2022/05/19 00:26:16;;;;;;;6.17;5.67;;;;;;;13.41;100.00;97089.59;5050006;28;20503;-75
2022/05/19 00:28:43;;;;;;;6.70;6.00;;;;;;;13.43;100.00;97080.19;5079208;28;20447;-75
2022/05/19 00:31:10;;;;;;;5.10;4.80;;;;;;;13.32;100.00;97063.88;5078819;28;20542;-75
2022/05/19 00:33:37;;;;;;;5.93;5.43;;;;;;;13.36;100.00;97057.94;5058298;28;20457;-75
2022/05/19 00:36:14;;;;;;;6.00;5.60;;;;;;;13.47;100.00;97075.00;5064495;28;20523;-75
2022/05/19 00:38:41;;;;;;;6.03;5.00;;;;;;;13.71;100.00;97090.28;5073728;28;20431;-76
2022/05/19 00:41:09;;;;;;;5.43;5.03;;;;;;;13.64;100.00;97082.06;5079210;28;20448;-76
2022/05/19 00:43:41;;;;;;;6.27;5.67;;;;;;;13.59;100.00;97067.09;5084841;28;20994;-75
2022/05/19 00:46:30;;;;;;;5.50;5.10;;;;;;;13.52;100.00;97078.25;5071201;28;20515;-75
2022/05/19 00:49:09;;;;;;;5.53;5.13;;;;;;;13.57;100.00;97091.31;5057897;28;20432;-75
2022/05/19 00:51:49;;;;;;;5.93;5.20;;;;;;;13.54;100.00;97078.69;5069686;28;20487;-76
2022/05/19 00:54:20;;;;;;;8.27;5.80;;;;;;;13.56;100.00;97089.78;5070749;28;20468;-76
2022/05/19 00:56:56;;;;;;;14.97;7.63;;;;;;;13.53;100.00;97087.00;5079675;28;20443;-76
2022/05/19 00:59:31;;;;;;;18.87;7.20;;;;;;;13.20;100.00;97052.41;5060684;28;20472;-76
2022/05/19 01:01:58;;;;;;;12.40;5.83;;;;;;;13.11;100.00;97081.69;5089412;28;20478;-76
2022/05/19 01:04:38;;;;;;;29.83;9.30;;;;;;;13.13;100.00;97068.06;5092536;28;20550;-75
2022/05/19 01:07:10;;;;;;;27.93;10.07;;;;;;;12.93;100.00;97021.84;5085306;28;20942;-75
2022/05/19 01:09:38;;;;;;;25.37;8.67;;;;;;;13.24;100.00;97063.97;5080408;28;20510;-75
2022/05/19 01:12:06;;;;;;;26.30;9.00;;;;;;;13.19;100.00;97067.56;5080737;28;20551;-75
2022/05/19 01:14:33;;;;;;;19.97;9.90;;;;;;;13.05;100.00;97074.22;5087168;28;20488;-75
2022/05/19 01:17:01;;;;;;;18.40;7.73;;;;;;;12.95;100.00;97046.97;5086659;28;20427;-75
2022/05/19 01:19:48;;;;;;;24.23;8.50;;;;;;;12.91;100.00;97079.78;5087072;28;20423;-75
2022/05/19 01:22:27;;;;;;;32.87;11.53;;;;;;;12.80;100.00;97076.72;5086885;28;20460;-76
2022/05/19 01:25:05;;;;;;;16.63;7.33;;;;;;;12.82;100.00;97071.06;5056759;28;20438;-75
2022/05/19 01:27:32;;;;;;;26.57;9.37;;;;;;;12.80;100.00;97073.28;5079534;28;20526;-75
2022/05/19 01:30:01;;;;;;;23.80;8.93;;;;;;;12.71;100.00;97063.50;5081714;28;20760;-75
2022/05/19 01:32:30;;;;;;;33.37;11.33;;;;;;;12.30;100.00;97042.97;5076593;28;20456;-75
2022/05/19 01:34:58;;;;;;;21.00;8.60;;;;;;;12.29;100.00;97051.25;5072991;28;20571;-75
2022/05/19 01:37:26;;;;;;;19.00;9.87;;;;;;;12.64;100.00;97073.84;5080734;28;20451;-75
2022/05/19 01:40:23;;;;;;;16.10;7.70;;;;;;;12.68;100.00;97073.97;5077311;28;20807;-75
2022/05/19 01:42:57;;;;;;;12.73;7.83;;;;;;;12.21;100.00;97031.63;5072846;28;20457;-75
2022/05/19 01:45:39;;;;;;;10.83;7.67;;;;;;;12.45;100.00;97085.97;5086648;28;20436;-75
2022/05/19 01:48:28;;;;;;;9.27;6.57;;;;;;;12.11;100.00;97053.97;5089702;28;20835;-75
2022/05/19 01:51:23;;;;;;;12.73;7.20;;;;;;;12.07;100.00;97062.88;5052752;28;20461;-75
2022/05/19 01:54:04;;;;;;;13.20;8.07;;;;;;;11.73;100.00;97035.34;5071475;28;20542;-75
2022/05/19 01:56:53;;;;;;;16.90;7.57;;;;;;;11.72;100.00;97070.88;5062668;28;20542;-75
2022/05/19 01:59:47;;;;;;;20.90;8.37;;;;;;;11.53;100.00;97046.59;5080532;28;20532;-75
2022/05/19 02:02:42;;;;;;;12.57;7.43;;;;;;;11.57;100.00;97060.75;5058560;28;20551;-75
2022/05/19 02:05:33;;;;;;;9.13;6.70;;;;;;;11.82;100.00;97065.28;5081587;28;20534;-75
2022/05/19 02:08:04;;;;;;;14.40;7.80;;;;;;;11.91;100.00;97069.78;5079010;28;20447;-75
2022/05/19 02:10:36;;;;;;;12.90;6.47;;;;;;;11.61;100.00;97037.06;5063115;28;20478;-75
2022/05/19 02:13:04;;;;;;;11.93;7.43;;;;;;;11.89;100.00;97040.19;5083389;28;20962;-75
2022/05/19 02:15:37;;;;;;;18.30;7.40;;;;;;;11.80;100.00;97059.50;5058868;28;20879;-75
2022/05/19 02:18:04;;;;;;;23.77;8.53;;;;;;;11.75;100.00;97030.53;5052395;28;20445;-75
2022/05/19 02:20:31;;;;;;;16.57;8.07;;;;;;;11.46;100.00;97017.16;5068281;28;20552;-75
2022/05/19 02:22:59;;;;;;;15.27;8.03;;;;;;;11.63;100.00;97016.38;5067307;28;20544;-75
2022/05/19 02:25:39;;;;;;;20.13;8.77;;;;;;;11.55;100.00;97042.53;5085670;28;20570;-75
2022/05/19 02:28:15;;;;;;;11.33;7.20;;;;;;;11.61;100.00;97061.69;5084159;28;20927;-75
2022/05/19 02:30:43;;;;;;;12.53;8.73;;;;;;;11.48;100.00;97041.44;5079938;28;20513;-75
2022/05/19 02:33:15;;;;;;;19.13;7.13;;;;;;;11.35;100.00;97019.38;5063243;28;20437;-75
2022/05/19 02:35:43;;;;;;;10.00;7.10;;;;;;;10.81;100.00;96996.97;5085514;28;20555;-75
2022/05/19 02:38:11;;;;;;;13.90;7.83;;;;;;;11.35;100.00;97059.09;5071957;28;20803;-75
2022/05/19 02:40:39;;;;;;;13.60;8.03;;;;;;;11.33;100.00;97052.53;5061961;28;20427;-75
2022/05/19 02:43:06;;;;;;;9.97;7.47;;;;;;;11.38;100.00;97044.44;5078522;28;20870;-75
2022/05/19 02:45:34;;;;;;;8.43;7.47;;;;;;;11.06;100.00;97038.53;5079152;28;20423;-75
2022/05/19 02:48:01;;;;;;;16.80;6.90;;;;;;;10.49;100.00;97021.97;5061609;28;20459;-75
2022/05/19 02:50:29;;;;;;;16.77;6.57;;;;;;;10.79;100.00;97050.16;5084446;28;20519;-75
2022/05/19 02:52:57;;;;;;;17.60;7.47;;;;;;;10.70;100.00;97051.28;5085344;28;20483;-75
2022/05/19 02:55:24;;;;;;;12.30;8.60;;;;;;;10.83;100.00;97045.84;5079668;28;20464;-75
2022/05/19 02:57:55;;;;;;;10.47;7.67;;;;;;;11.00;100.00;97031.06;5078062;28;20432;-75
2022/05/19 03:00:24;;;;;;;19.47;9.53;;;;;;;10.80;100.00;97027.91;5082980;28;20446;-75
2022/05/19 03:02:57;;;;;;;9.67;7.63;;;;;;;11.10;100.00;97050.06;5091289;28;20458;-75
2022/05/19 03:05:29;;;;;;;10.47;6.60;;;;;;;11.17;100.00;97049.59;5064397;28;20439;-75
2022/05/19 03:08:03;;;;;;;9.07;8.30;;;;;;;11.17;100.00;97052.22;5085043;28;20475;-75
2022/05/19 03:10:30;;;;;;;9.83;7.40;;;;;;;11.20;100.00;97049.72;5085094;28;20481;-77
2022/05/19 03:12:57;;;;;;;8.63;6.60;;;;;;;11.30;100.00;97055.81;5061242;28;20534;-77
2022/05/19 03:15:25;;;;;;;8.73;6.30;;;;;;;11.17;100.00;97055.66;5079950;28;20832;-77
2022/05/19 03:17:51;;;;;;;8.00;7.00;;;;;;;11.15;100.00;97026.06;5084287;28;20772;-77
2022/05/19 03:20:18;;;;;;;7.70;6.97;;;;;;;11.16;100.00;97045.38;5083774;28;20841;-76
2022/05/19 03:22:45;;;;;;;10.77;7.10;;;;;;;10.97;100.00;97026.41;5077712;28;20554;-76
2022/05/19 03:25:12;;;;;;;8.60;7.40;;;;;;;10.82;100.00;97006.47;5061759;28;20468;-76
2022/05/19 03:27:39;;;;;;;9.83;7.03;;;;;;;10.94;100.00;97035.72;5084532;28;20498;-76
2022/05/19 03:30:14;;;;;;;7.70;6.50;;;;;;;10.86;100.00;97045.22;5084542;28;20435;-76
2022/05/19 03:32:41;;;;;;;10.30;7.07;;;;;;;10.52;100.00;96955.25;5080068;28;20986;-77
2022/05/19 03:35:09;;;;;;;8.27;7.50;;;;;;;10.58;100.00;97031.47;5077441;28;21026;-76
2022/05/19 03:37:36;;;;;;;9.60;7.47;;;;;;;9.90;100.00;97026.72;5082795;28;20523;-76
2022/05/19 03:40:03;;;;;;;9.83;6.53;;;;;;;9.95;100.00;97030.00;5084361;28;20432;-76
2022/05/19 03:42:30;;;;;;;9.37;7.17;;;;;;;10.21;100.00;97039.91;5079175;28;20612;-76
2022/05/19 03:44:57;;;;;;;8.80;7.20;;;;;;;10.23;100.00;97008.69;5090355;28;20499;-76
2022/05/19 03:47:24;;;;;;;7.70;7.07;;;;;;;10.27;100.00;97018.31;5081012;28;20897;-76
2022/05/19 03:49:50;;;;;;;11.17;6.63;;;;;;;10.22;100.00;97001.84;5059711;28;20473;-76
2022/05/19 03:52:17;;;;;;;6.37;5.83;;;;;;;10.45;100.00;97039.53;5081319;28;20544;-76
2022/05/19 03:54:45;;;;;;;8.23;6.90;;;;;;;10.32;100.00;97049.91;5085236;28;20467;-76
2022/05/19 03:57:16;;;;;;;7.10;6.50;;;;;;;10.13;100.00;97044.06;5080289;28;20436;-76
2022/05/19 03:59:42;;;;;;;6.73;6.13;;;;;;;9.50;100.00;96973.09;5077206;28;20435;-76
2022/05/19 04:02:09;;;;;;;6.83;6.23;;;;;;;10.34;100.00;97053.03;5073527;28;20464;-76
2022/05/19 04:04:56;;;;;;;15.13;7.20;;;;;;;10.19;100.00;97027.00;5050603;28;21023;-76
2022/05/19 04:07:22;;;;;;;8.03;7.17;;;;;;;9.98;100.00;97004.84;5077495;28;20522;-76
2022/05/19 04:09:49;;;;;;;9.97;7.50;;;;;;;10.31;100.00;97034.38;5071538;28;20429;-76
2022/05/19 04:12:20;;;;;;;7.70;6.97;;;;;;;10.37;100.00;97011.97;5084906;28;20540;-76
2022/05/19 04:14:48;;;;;;;7.87;7.00;;;;;;;10.67;100.00;97047.34;5069984;28;20539;-76
2022/05/19 04:17:14;;;;;;;7.73;6.47;;;;;;;10.83;100.00;97039.78;5073119;28;20435;-76
2022/05/19 04:19:41;;;;;;;11.00;7.00;;;;;;;11.10;100.00;97039.47;5081794;28;20440;-76
2022/05/19 04:22:08;;;;;;;8.27;7.57;;;;;;;11.02;100.00;97010.34;5069938;28;20491;-76
2022/05/19 04:24:34;;;;;;;9.00;8.20;;;;;;;11.12;100.00;97042.59;5051084;28;20477;-76
2022/05/19 04:27:03;;;;;;;7.93;7.07;;;;;;;10.68;100.00;97008.47;5070090;28;20437;-76
2022/05/19 04:29:30;;;;;;;7.50;6.90;;;;;;;10.89;100.00;97022.66;5069668;28;20437;-75
2022/05/19 04:31:57;;;;;;;8.23;7.50;;;;;;;11.17;100.00;97015.94;5086676;28;20486;-75
2022/05/19 04:34:23;;;;;;;7.37;6.70;;;;;;;11.33;100.00;97057.81;5071164;28;20547;-75
2022/05/19 04:36:50;;;;;;;9.37;7.43;;;;;;;11.30;100.00;97027.47;5066705;28;20481;-75
2022/05/19 04:39:16;;;;;;;8.27;7.40;;;;;;;11.35;100.00;97023.88;5069803;28;20848;-75
2022/05/19 04:41:43;;;;;;;8.63;7.83;;;;;;;11.42;100.00;97058.59;5069682;28;20539;-75
2022/05/19 04:44:10;;;;;;;8.43;7.53;;;;;;;11.24;100.00;97034.81;5070010;28;20432;-75
2022/05/19 04:46:36;;;;;;;7.43;6.63;;;;;;;11.38;100.00;97058.47;5084604;28;20519;-75
2022/05/19 04:49:05;;;;;;;12.53;7.10;;;;;;;11.51;100.00;97038.19;5079751;28;20423;-75
2022/05/19 04:51:32;;;;;;;8.47;7.67;;;;;;;11.84;100.00;97068.38;5056554;28;20496;-76
2022/05/19 04:53:58;;;;;;;12.27;8.03;;;;;;;12.00;100.00;97057.28;5069764;28;20436;-76
2022/05/19 04:56:25;;;;;;;8.43;7.43;;;;;;;11.95;100.00;97047.63;5069403;28;20559;-76
2022/05/19 04:58:51;;;;;;;7.43;6.83;;;;;;;11.91;100.00;97017.56;5071101;28;20456;-76
2022/05/19 05:01:18;;;;;;;8.00;6.97;;;;;;;11.75;100.00;96984.69;5069526;28;20456;-75
2022/05/19 05:03:45;;;;;;;9.97;7.83;;;;;;;12.27;100.00;97027.69;5080292;28;20455;-75
2022/05/19 05:06:12;;;;;;;8.97;8.30;;;;;;;12.32;100.00;97030.19;5059656;28;20514;-76
2022/05/19 05:08:38;;;;;;;9.30;8.33;;;;;;;12.82;100.00;97082.50;5077571;28;21177;-76
2022/05/19 05:11:05;;;;;;;8.33;7.47;;;;;;;12.81;100.00;97043.75;5069447;28;20519;-76
2022/05/19 05:13:32;;;;;;;7.20;6.70;;;;;;;13.15;100.00;97085.22;5069499;28;20524;-76
2022/05/19 05:15:58;;;;;;;7.80;7.27;;;;;;;12.85;100.00;97047.34;5069301;28;20940;-76
2022/05/19 05:18:25;;;;;;;9.27;8.47;;;;;;;12.73;100.00;97045.38;5069486;28;20447;-76
2022/05/19 05:20:52;;;;;;;8.87;8.03;;;;;;;12.98;100.00;97078.19;5069324;28;20889;-75
2022/05/19 05:23:18;;;;;;;8.03;7.33;;;;;;;13.09;100.00;97081.22;5070930;28;20914;-75
2022/05/19 05:25:45;;;;;;;7.77;7.07;;;;;;;13.17;100.00;97055.69;5086129;28;20524;-76
2022/05/19 05:28:11;;;;;;;8.20;7.60;;;;;;;13.21;100.00;97083.97;5070604;28;20462;-75
2022/05/19 05:30:38;;;;;;;8.07;7.40;;;;;;;13.17;100.00;97061.00;5069166;28;20478;-75
2022/05/19 05:33:08;;;;;;;7.57;6.97;;;;;;;13.56;100.00;97089.00;5083143;28;20427;-75
2022/05/19 05:35:35;;;;;;;6.80;6.20;;;;;;;13.51;100.00;97083.91;5089228;28;20461;-75
2022/05/19 05:38:02;;;;;;;7.10;6.50;;;;;;;13.48;100.00;97045.44;5089304;28;20489;-77
2022/05/19 05:40:31;;;;;;;8.03;7.33;;;;;;;13.81;100.00;97068.59;5057216;28;20432;-77
2022/05/19 05:43:05;;;;;;;8.00;7.30;;;;;;;14.02;100.00;97076.50;5056366;28;20465;-76
2022/05/19 05:45:31;;;;;;;6.50;5.90;;;;;;;14.28;100.00;97073.53;5060928;28;20463;-76
2022/05/19 05:47:58;;;;;;;7.00;6.40;;;;;;;14.27;100.00;97051.50;5072682;28;20976;-77
2022/05/19 05:50:25;;;;;;;6.47;5.87;;;;;;;14.52;100.00;97076.25;5074059;28;20528;-77
2022/05/19 05:52:51;;;;;;;6.80;6.20;;;;;;;14.69;100.00;97062.75;5074221;28;20451;-77
2022/05/19 05:55:18;;;;;;;6.20;5.70;;;;;;;15.05;100.00;97080.53;5074372;28;20531;-77
2022/05/19 05:57:45;;;;;;;5.83;5.33;;;;;;;15.28;100.00;97072.03;5072445;28;20971;-77
2022/05/19 06:00:12;;;;;;;6.20;4.73;;;;;;;15.48;100.00;97075.63;5080252;28;20550;-77
2022/05/19 06:02:41;;;;;;;6.60;5.80;;;;;;;15.87;100.00;97090.03;5072333;28;20456;-76
2022/05/19 06:05:11;;;;;;;5.00;4.60;;;;;;;15.85;100.00;97073.63;5052478;28;20444;-76
2022/05/19 06:07:38;;;;;;;5.10;4.70;;;;;;;16.05;100.00;97087.84;5072477;28;20511;-77
2022/05/19 06:10:05;;;;;;;5.63;5.10;;;;;;;16.02;100.00;97088.50;5072323;28;20501;-76
2022/05/19 06:12:32;;;;;;;4.60;4.20;;;;;;;16.14;100.00;97081.22;5088939;28;20525;-76
2022/05/19 06:15:05;;;;;;;5.93;4.80;;;;;;;16.37;99.01;97092.09;5072206;28;20472;-77
2022/05/19 06:17:32;;;;;;;4.63;4.33;;;;;;;16.21;96.41;97061.94;5073530;28;20459;-74
2022/05/19 06:19:58;;;;;;;4.63;4.20;;;;;;;16.20;92.73;97050.50;5072092;28;20440;-74
2022/05/19 06:22:25;;;;;;;8.30;4.27;;;;;;;16.54;92.39;97078.38;5071959;28;21057;-74
2022/05/19 06:24:52;;;;;;;4.90;4.00;;;;;;;16.92;91.50;97076.97;5072155;28;20420;-74
2022/05/19 06:27:19;;;;;;;4.53;4.20;;;;;;;17.17;90.58;97092.75;5055433;28;20821;-74
2022/05/19 06:29:45;;;;;;;4.53;4.23;;;;;;;17.22;89.93;97068.41;5073352;28;20475;-74
2022/05/19 06:32:12;;;;;;;4.80;4.50;;;;;;;17.48;90.26;97092.63;5073212;28;20448;-74
2022/05/19 06:34:40;;;;;;;7.10;4.50;;;;;;;17.25;90.77;97092.56;5088986;28;20493;-74
2022/05/19 06:37:07;;;;;;;5.40;4.60;;;;;;;17.27;89.40;97082.31;5071815;28;21016;-74
2022/05/19 06:39:34;;;;;;;5.70;4.47;;;;;;;17.73;88.30;97072.53;5051809;28;21048;-76
2022/05/19 06:42:01;;;;;;;4.90;4.50;;;;;;;17.85;88.10;97082.28;5076727;28;20550;-75
2022/05/19 06:44:37;;;;;;;4.40;4.00;;;;;;;17.71;83.15;97069.44;5079910;28;20875;-74
2022/05/19 06:47:13;;;;;;;7.77;4.50;;;;;;;18.01;83.57;97064.22;5051729;28;20461;-74
2022/05/19 06:49:41;;;;;;;6.40;4.10;;;;;;;18.06;80.74;97089.94;5067751;28;20427;-74
2022/05/19 06:52:11;;;;;;;4.03;3.67;;;;;;;17.78;81.00;97071.47;5072245;28;20535;-74
2022/05/19 06:54:38;;;;;;;4.30;4.00;;;;;;;18.14;81.87;97088.16;5073530;28;21040;-74
2022/05/19 06:57:04;;;;;;;4.83;4.10;;;;;;;18.34;79.91;97088.88;5091664;28;20534;-74
2022/05/19 06:59:31;;;;;;;4.50;3.80;;;;;;;18.48;79.86;97052.38;5091583;28;20471;-74
2022/05/19 07:01:58;;;;;;;3.37;3.17;;;;;;;18.21;77.84;97048.91;5076051;28;20574;-75
2022/05/19 07:04:25;;;;;;;4.77;4.13;;;;;;;18.50;77.53;97073.44;5054720;28;20789;-74
2022/05/19 07:06:51;;;;;;;4.97;4.07;;;;;;;18.58;75.46;97067.84;5071309;28;20431;-75
2022/05/19 07:09:20;;;;;;;4.30;3.70;;;;;;;18.00;76.33;97035.94;5072544;28;20556;-75
2022/05/19 07:11:46;;;;;;;4.60;3.83;;;;;;;18.85;77.47;97084.75;5051327;28;20826;-75
2022/05/19 07:14:14;;;;;;;11.70;3.90;;;;;;;18.52;74.56;97014.94;5071038;28;20471;-75
2022/05/19 07:16:44;;;;;;;4.67;4.17;;;;;;;18.94;74.49;97089.03;5071014;28;20464;-75
2022/05/19 07:21:56;;;;;;;4.30;3.90;;;;;;;19.10;74.37;97085.09;5070951;28;20551;-75
2022/05/19 07:24:23;;;;;;;5.93;4.93;;;;;;;18.93;74.24;97092.88;5070924;28;20432;-75
2022/05/19 07:26:54;;;;;;;4.77;4.20;;;;;;;19.89;73.95;97091.38;5070708;28;20437;-75
2022/05/19 07:29:22;;;;;;;4.80;4.30;;;;;;;19.92;70.75;97071.88;5078810;28;20480;-75
2022/05/19 07:31:50;;;;;;;5.70;3.20;;;;;;;20.49;70.20;97083.16;5089419;28;21069;-75
2022/05/19 07:34:21;;;;;;;4.30;3.90;;;;;;;20.27;69.50;97093.69;5070717;28;20446;-75
2022/05/19 07:36:48;;;;;;;5.00;3.57;;;;;;;20.98;67.57;97096.19;5085762;28;20447;-75
2022/05/19 07:39:15;;;;;;;3.90;3.60;;;;;;;21.23;66.73;97098.97;5070657;28;20464;-75
2022/05/19 07:41:42;;;;;;;8.67;3.90;;;;;;;21.32;65.85;97090.59;5071884;28;20455;-75
2022/05/19 07:44:10;;;;;;;5.57;3.53;;;;;;;21.00;65.42;97077.75;5070650;28;20951;-75
2022/05/19 07:46:37;;;;;;;6.53;5.93;;;;;;;20.38;67.37;97040.81;5071922;28;20478;-75
2022/05/19 07:49:04;;;;;;;3.53;3.23;;;;;;;20.72;65.75;97069.50;5050966;28;20441;-75
2022/05/19 07:51:36;;;;;;;5.13;3.50;;;;;;;20.70;65.31;97061.03;5067983;28;20535;-75
2022/05/19 07:54:05;;;;;;;4.60;3.60;;;;;;;20.58;64.21;97060.19;5070446;28;20436;-75
2022/05/19 07:56:32;;;;;;;11.70;3.87;;;;;;;20.63;64.23;97038.34;5070668;28;20506;-75
2022/05/19 07:59:00;;;;;;;4.40;4.00;;;;;;;21.18;63.93;97059.78;5070314;28;20761;-76
2022/05/19 08:01:28;;;;;;;4.20;3.40;;;;;;;21.04;62.33;97056.25;5070446;28;20822;-76
2022/05/19 08:03:54;;;;;;;3.30;3.00;;;;;;;21.16;63.29;97024.41;5071802;28;20485;-76
2022/05/19 08:06:21;;;;;;;4.00;3.10;;;;;;;21.62;63.30;97050.72;5050358;28;20449;-76
2022/05/19 08:08:48;;;;;;;3.37;3.17;;;;;;;21.64;61.90;97067.28;5072255;28;20511;-76
2022/05/19 08:11:15;;;;;;;3.80;3.50;;;;;;;21.59;61.71;97066.88;5069933;28;20560;-76
2022/05/19 08:16:27;;;;;;;3.40;3.20;;;;;;;21.32;60.35;97034.88;5059357;28;20547;-75
2022/05/19 08:18:53;;;;;;;4.50;4.03;;;;;;;21.68;59.78;97043.06;5054574;28;21012;-75
2022/05/19 08:21:21;;;;;;;4.93;3.77;;;;;;;21.84;58.09;97036.19;5070801;28;20909;-75
2022/05/19 08:23:50;;;;;;;3.23;3.03;;;;;;;22.21;57.26;97047.78;5070774;28;20437;-75
2022/05/19 08:26:18;;;;;;;3.60;2.80;;;;;;;22.13;56.89;97038.94;5087859;28;20440;-75
2022/05/19 08:28:48;;;;;;;5.30;4.40;;;;;;;22.61;55.68;97076.28;5087268;28;20421;-75
2022/05/19 08:31:23;;;;;;;5.40;3.17;;;;;;;21.86;54.83;97070.03;5070751;28;20444;-76
2022/05/19 08:33:52;;;;;;;4.10;2.63;;;;;;;22.09;55.08;97079.34;5070638;28;20424;-75
2022/05/19 08:36:22;;;;;;;3.57;3.27;;;;;;;22.36;54.58;97055.50;5072050;28;20455;-75
2022/05/19 08:38:50;;;;;;;7.63;4.87;;;;;;;22.69;54.51;97040.06;5070626;28;20975;-75
2022/05/19 08:41:31;;;;;;;5.97;3.33;;;;;;;22.96;53.79;97070.06;5070410;28;20510;-75
2022/05/19 08:44:26;;;;;;;3.97;3.10;;;;;;;23.20;54.74;97065.78;5059029;28;20483;-75
2022/05/19 08:46:54;;;;;;;6.50;3.87;;;;;;;22.96;52.64;97035.00;5053988;28;20456;-75
2022/05/19 08:49:38;;;;;;;3.33;3.13;;;;;;;23.38;53.73;97058.41;5066672;28;20447;-75
2022/05/19 08:52:08;;;;;;;4.43;3.50;;;;;;;22.83;53.05;97063.56;5038939;28;20445;-75
2022/05/19 08:54:37;;;;;;;8.93;3.30;;;;;;;23.29;52.99;97055.34;5066252;28;20440;-75
2022/05/19 08:57:30;;;;;;;6.40;3.17;;;;;;;23.05;54.27;97056.97;5054052;28;20780;-75
2022/05/19 09:00:17;;;;;;;3.40;3.17;;;;;;;23.68;53.06;97059.84;5087884;28;20436;-75
2022/05/19 09:02:46;;;;;;;3.00;2.80;;;;;;;23.04;54.43;97062.75;5084219;28;20457;-76
2022/05/19 09:05:12;;;;;;;3.43;3.23;;;;;;;23.32;53.72;97059.97;5070818;28;20476;-75
2022/05/19 09:08:03;;;;;;;3.93;3.63;;;;;;;23.65;53.49;97057.94;5070540;28;20451;-75
2022/05/19 09:10:52;;;;;;;3.50;3.10;;;;;;;23.70;52.59;97057.50;5087417;28;20448;-75
2022/05/19 09:13:38;;;;;;;5.77;3.53;;;;;;;24.14;53.48;97054.91;5061278;28;20448;-76
2022/05/19 09:16:09;;;;;;;2.90;2.70;;;;;;;23.29;52.93;97004.84;5065984;28;20899;-75
2022/05/19 09:18:38;;;;;;;3.73;3.10;;;;;;;23.80;53.14;97008.06;5074878;28;20428;-76
2022/05/19 09:21:06;;;;;;;3.20;2.93;;;;;;;24.20;51.37;97047.16;5075595;28;20518;-76
2022/05/19 09:23:40;;;;;;;3.10;2.90;;;;;;;24.38;51.56;97044.31;5054443;28;20469;-75
2022/05/19 09:26:13;;;;;;;4.80;3.03;;;;;;;24.66;51.23;97049.47;5078454;28;20428;-75
2022/05/19 09:28:43;;;;;;;7.33;3.33;;;;;;;24.23;50.88;97040.19;5055913;28;20433;-75
2022/05/19 09:31:12;;;;;;;3.87;3.50;;;;;;;23.99;50.68;97025.66;5075485;28;20472;-75
2022/05/19 09:33:44;;;;;;;3.57;2.97;;;;;;;23.65;50.09;97023.59;5074521;28;20501;-75
2022/05/19 09:36:14;;;;;;;3.13;2.93;;;;;;;24.51;50.86;97052.72;5074201;28;20456;-75
2022/05/19 09:38:49;;;;;;;3.40;2.90;;;;;;;24.61;50.38;97046.44;5078155;28;20887;-75
2022/05/19 09:41:28;;;;;;;3.60;3.13;;;;;;;24.50;49.15;97008.69;5095484;28;20450;-75
2022/05/19 09:43:58;;;;;;;4.10;3.00;;;;;;;24.96;50.08;97043.38;5086914;28;20428;-75
2022/05/19 09:46:39;;;;;;;3.30;3.00;;;;;;;25.09;49.56;97034.75;5074779;28;20520;-75
2022/05/19 09:49:15;;;;;;;3.70;3.20;;;;;;;24.55;49.19;97010.19;5083865;28;20437;-76
2022/05/19 09:51:44;;;;;;;3.27;2.97;;;;;;;24.90;49.84;97038.81;5073653;28;20905;-75
2022/05/19 09:54:12;;;;;;;2.90;2.70;;;;;;;24.24;49.73;97037.06;5057648;28;20460;-76
2022/05/19 09:56:47;;;;;;;4.73;3.10;;;;;;;24.35;50.71;97007.28;5073709;28;20509;-75
2022/05/19 09:59:32;;;;;;;3.73;3.43;;;;;;;24.86;49.40;97033.44;5073337;28;20815;-75
2022/05/19 10:02:11;;;;;;;7.10;3.23;;;;;;;25.08;48.71;97017.00;5073570;28;20604;-76
2022/05/19 10:04:41;;;;;;;4.70;3.40;;;;;;;24.84;48.86;96997.13;5079842;28;20415;-76
2022/05/19 10:07:19;;;;;;;4.27;3.20;;;;;;;24.65;48.74;97017.41;5084232;28;20478;-76
2022/05/19 10:09:47;;;;;;;3.30;3.00;;;;;;;24.83;49.24;97019.94;5073295;28;20539;-75
2022/05/19 10:12:22;;;;;;;4.80;3.60;;;;;;;24.56;50.06;97003.59;5073021;28;20561;-76
2022/05/19 10:15:11;;;;;;;3.77;3.47;;;;;;;24.74;49.29;97026.63;5073256;28;20863;-75
2022/05/19 10:18:01;;;;;;;4.13;3.13;;;;;;;24.50;49.29;97002.50;5074451;28;20480;-76
2022/05/19 10:20:32;;;;;;;3.23;3.00;;;;;;;25.21;48.84;97023.41;5073135;28;20535;-75
2022/05/19 10:23:58;;;;;;;4.20;3.80;;;;;;;25.28;48.89;97020.63;5074273;28;20429;-76
2022/05/19 10:31:02;;;;;;;4.17;3.77;;;;;;;25.37;48.43;97012.00;5079823;28;20447;-76
2022/05/19 10:33:14;;;;;;;3.77;3.00;;;;;;;25.64;49.18;97004.66;5018405;28;20486;-76
2022/05/19 10:36:05;;;;;;;3.60;3.30;;;;;;;25.28;49.09;97005.16;4999211;28;20952;-75
2022/05/19 10:38:43;;;;;;;3.80;3.17;;;;;;;25.09;48.70;96994.16;5056752;28;20468;-76
2022/05/19 10:41:21;;;;;;;4.13;3.20;;;;;;;25.31;48.39;96992.72;5073343;28;20453;-76
2022/05/19 10:44:26;;;;;;;11.10;3.60;;;;;;;25.19;49.20;96995.97;5060936;28;20519;-75
2022/05/19 10:47:12;;;;;;;3.37;3.17;;;;;;;25.78;49.55;96995.63;5054402;28;20439;-76
2022/05/19 10:49:56;;;;;;;3.83;3.40;;;;;;;25.73;48.72;97002.25;5089961;28;20443;-75
2022/05/19 10:52:41;;;;;;;5.87;3.23;;;;;;;26.13;47.98;96997.75;5110433;28;21011;-75
2022/05/19 10:55:30;;;;;;;3.80;2.80;;;;;;;26.31;45.34;96985.84;5059852;28;20578;-75
2022/05/19 10:58:02;;;;;;;3.60;3.30;;;;;;;26.58;46.13;96988.50;5089262;28;20488;-76
2022/05/19 11:01:04;;;;;;;2.93;2.60;;;;;;;26.61;46.10;96985.75;5069773;28;20433;-76
2022/05/19 11:03:40;;;;;;;2.90;2.70;;;;;;;26.51;43.95;96976.59;5078121;28;20508;-75
2022/05/19 11:06:46;;;;;;;3.63;2.87;;;;;;;27.02;45.38;96977.22;5055434;28;20420;-76
2022/05/19 11:09:16;;;;;;;4.10;2.90;;;;;;;26.93;44.29;96976.22;5076764;28;20855;-76
2022/05/19 11:12:09;;;;;;;5.83;2.77;;;;;;;26.79;42.82;96975.31;5072136;28;20472;-76
2022/05/19 11:15:09;;;;;;;3.37;3.07;;;;;;;27.29;44.00;96968.91;5071912;28;20441;-76
2022/05/19 11:18:15;;;;;;;7.07;3.00;;;;;;;27.80;43.16;96963.16;5106595;28;20491;-75
2022/05/19 11:21:04;;;;;;;3.10;2.90;;;;;;;28.00;42.58;96966.53;5086743;28;20463;-75
2022/05/19 11:23:48;;;;;;;3.40;3.17;;;;;;;27.77;41.15;96967.47;5088673;28;20428;-76
2022/05/19 11:26:24;;;;;;;3.73;2.90;;;;;;;27.39;41.41;96959.00;5077848;28;20440;-76
2022/05/19 11:28:51;;;;;;;3.70;3.10;;;;;;;27.23;42.47;96957.00;5074103;28;20527;-75
2022/05/19 11:31:44;;;;;;;2.57;2.37;;;;;;;27.76;41.86;96955.06;5074761;28;20859;-75
2022/05/19 11:34:37;;;;;;;3.40;3.10;;;;;;;28.07;40.52;96943.88;5062353;28;20431;-76
2022/05/19 11:37:15;;;;;;;2.67;2.47;;;;;;;28.30;41.18;96949.13;5071857;28;20481;-76
2022/05/19 11:39:42;;;;;;;3.87;2.93;;;;;;;28.24;42.76;96939.94;5051304;28;20520;-76
2022/05/19 11:42:27;;;;;;;4.23;3.20;;;;;;;27.90;40.94;96938.41;5054616;28;20495;-76
2022/05/19 11:44:54;;;;;;;2.60;2.40;;;;;;;27.73;40.79;96933.41;5088547;28;20474;-76
2022/05/19 11:57:12;;;;;;;3.30;2.53;;;;;;;28.71;39.89;96895.91;5058140;28;21053;-76
2022/05/19 11:59:43;;;;;;;3.83;2.90;;;;;;;28.72;38.73;96920.00;5054134;28;20809;-76
2022/05/19 12:02:10;;;;;;;2.73;2.53;;;;;;;28.79;40.25;96908.91;5054433;28;20559;-76
2022/05/19 12:04:41;;;;;;;5.10;2.87;;;;;;;29.00;38.69;96896.69;5072010;28;20448;-76
2022/05/19 12:07:24;;;;;;;5.90;2.50;;;;;;;29.03;39.31;96928.50;5073671;28;20463;-76
2022/05/19 12:09:59;;;;;;;3.80;2.93;;;;;;;29.43;38.70;96934.28;5041608;28;20541;-76